X  Close Metar Aviation Weather Data     EHKD De Kooy Airport
Temperature
46°F Temperature
39°F Dewpoint
76% Humidity



Wind
21 MPH
34 KM/H
9 M/S
18 KTS



330°
NNW
Current Conditions

Partly Cloudy Partly Cloudy
Pressure 1010.84 (hPa) - 29.85 (inHg)
Visibility 6 (mile) - 9.7 (km)
Airport
Airport-code EHKD

Location: De Kooy Airport
Distance: 34 (mi)

Metar:
EHKD 191725Z AUTO 33018G30KT 290V020 9999 FEW017 SCT021 BKN024 08/04 Q1011 REDZ WHT TEMPO 4000 SHRA SCT016 SCT020CB

Time: 19-04-2024 19:25 CEST